Time;durP1;ratioP1;P1;durP2;ratioP2;P2;SDS_P1;SDS_P2;PMS_P1;PMS_P2;Temp;Humidity;BMP_temperature;BMP_pressure;BME280_temperature;BME280_humidity;BME280_pressure;Samples;Min_cycle;Max_cycle;Signal;HPM_P1;HPM_P2
2023/12/23 00:02:02;;;;;;;;;;;6.20;57.70;;;4.59;61.20;99079.09;12247393;19;19915;-85
2023/12/23 00:06:04;;;;;;;;;;;6.20;57.80;;;4.75;61.18;99111.81;12248390;19;19922;-86
2023/12/23 00:10:06;;;;;;;;;;;6.20;57.90;;;4.66;61.26;99110.59;12249303;19;19915;-85
2023/12/23 00:14:07;;;;;;;;;;;6.20;57.90;;;4.79;61.28;99128.84;12247308;19;19918;-85
2023/12/23 00:18:09;;;;;;;;;;;6.20;57.90;;;4.68;61.42;99105.34;12249254;19;19932;-85
2023/12/23 00:22:10;;;;;;;;;;;6.20;58.00;;;4.63;61.39;99115.94;12245282;19;19958;-85
2023/12/23 00:26:11;;;;;;;;;;;6.20;58.10;;;4.69;61.51;99136.28;12249577;19;19907;-85
2023/12/23 00:30:18;;;;;;;;;;;6.20;58.00;;;4.62;61.35;99129.81;12247573;19;20018;-85
2023/12/23 00:34:20;;;;;;;;;;;6.30;58.00;;;4.70;61.39;99150.88;12243995;19;19923;-85
2023/12/23 00:38:21;;;;;;;;;;;6.20;58.00;;;4.73;61.53;99150.72;12246433;19;20333;-85
2023/12/23 00:42:23;;;;;;;;;;;6.20;58.00;;;4.73;61.37;99173.16;12243302;19;19914;-85
2023/12/23 00:46:24;;;;;;;;;;;6.20;58.00;;;4.19;61.43;99102.00;12246512;19;20261;-85
2023/12/23 00:50:26;;;;;;;;;;;6.20;58.00;;;4.63;61.46;99173.66;12244352;19;19910;-85
2023/12/23 00:54:27;;;;;;;;;;;6.20;58.10;;;4.67;61.59;99210.50;12245913;19;20344;-85
2023/12/23 00:58:29;;;;;;;;;;;6.20;58.10;;;4.71;61.55;99219.75;12245744;19;19943;-85
2023/12/23 01:02:31;;;;;;;;;;;6.40;58.20;;;4.74;61.38;99240.28;12242937;19;19922;-85
2023/12/23 01:06:32;;;;;;;;;;;6.20;58.10;;;4.43;61.38;99205.78;12246724;19;19903;-85
2023/12/23 01:10:34;;;;;;;;;;;6.20;58.40;;;4.68;61.52;99256.13;12244925;19;19932;-85
2023/12/23 01:14:36;;;;;;;;;;;6.20;58.20;;;4.62;61.59;99256.47;12244644;19;19915;-85
2023/12/23 01:18:38;;;;;;;;;;;6.30;58.20;;;4.79;61.58;99289.16;12245657;19;19921;-85
2023/12/23 01:22:40;;;;;;;;;;;6.50;58.30;;;4.75;61.56;99298.84;12240137;19;19967;-85
2023/12/23 01:26:42;;;;;;;;;;;6.30;58.30;;;4.52;61.46;99268.22;12245078;19;20281;-85
2023/12/23 01:30:44;;;;;;;;;;;6.30;58.20;;;4.59;61.36;99274.72;12243057;19;20288;-85
2023/12/23 01:34:45;;;;;;;;;;;6.20;58.30;;;4.70;61.64;99326.69;12242769;19;20465;-85
2023/12/23 01:38:47;;;;;;;;;;;6.20;58.10;;;4.60;61.46;99323.75;12246549;19;19930;-85
2023/12/23 01:42:48;;;;;;;;;;;6.20;58.10;;;4.66;61.46;99351.88;12244668;19;19923;-85
2023/12/23 01:46:52;;;;;;;;;;;6.20;58.10;;;4.59;61.47;99371.22;12244288;19;19935;-85
2023/12/23 01:50:56;;;;;;;;;;;6.30;58.20;;;4.59;61.67;99363.47;12242351;19;20614;-85
2023/12/23 01:54:58;;;;;;;;;;;6.20;58.30;;;4.59;61.51;99386.72;12241179;19;19929;-85
2023/12/23 01:59:02;;;;;;;;;;;6.10;58.30;;;4.51;61.76;99373.38;12243976;19;20326;-85
2023/12/23 02:03:05;;;;;;;;;;;6.10;58.30;;;4.57;61.76;99375.63;12250812;19;19915;-85
2023/12/23 02:07:06;;;;;;;;;;;6.10;58.30;;;4.27;61.76;99330.72;12256599;19;19911;-85
2023/12/23 02:11:12;;;;;;;;;;;6.40;58.50;;;4.66;61.57;99415.66;12252606;19;19925;-85
2023/12/23 02:15:15;;;;;;;;;;;6.20;58.40;;;4.63;61.74;99408.91;12250802;19;19930;-85
2023/12/23 02:19:16;;;;;;;;;;;6.20;58.40;;;4.73;61.76;99436.88;12253809;19;19943;-85
2023/12/23 02:23:18;;;;;;;;;;;6.20;58.40;;;4.67;61.65;99417.31;12249796;19;19911;-85
2023/12/23 02:27:29;;;;;;;;;;;6.20;58.30;;;4.66;61.66;99438.94;12253689;19;19915;-85
2023/12/23 02:31:32;;;;;;;;;;;6.40;58.40;;;4.60;61.49;99423.75;12250760;19;19925;-85
2023/12/23 02:35:34;;;;;;;;;;;6.20;58.30;;;4.70;61.62;99439.59;12249957;19;19914;-85
2023/12/23 02:39:36;;;;;;;;;;;6.20;58.20;;;4.70;61.57;99455.97;12252662;19;19919;-85
2023/12/23 02:43:38;;;;;;;;;;;6.20;58.20;;;4.59;61.48;99430.69;12253701;19;19919;-85
2023/12/23 02:47:39;;;;;;;;;;;6.20;58.10;;;4.68;61.82;99454.38;12252726;19;20264;-85
2023/12/23 02:51:41;;;;;;;;;;;6.20;58.00;;;4.64;61.73;99457.13;12249455;19;20026;-85
2023/12/23 02:55:43;;;;;;;;;;;6.20;58.00;;;4.59;61.58;99463.44;12250931;19;20385;-85
2023/12/23 02:59:45;;;;;;;;;;;6.30;58.10;;;4.25;61.60;99423.78;12251720;19;19919;-85
2023/12/23 03:03:46;;;;;;;;;;;6.20;58.00;;;4.48;61.79;99473.47;12251442;19;20283;-85
2023/12/23 03:07:48;;;;;;;;;;;6.20;58.00;;;4.46;61.60;99481.34;12254083;19;20041;-85
2023/12/23 03:11:50;;;;;;;;;;;6.20;58.00;;;4.57;61.64;99519.56;12246794;19;19922;-85
2023/12/23 03:15:52;;;;;;;;;;;6.40;58.00;;;4.56;61.75;99505.78;12247821;19;19919;-85
2023/12/23 03:19:55;;;;;;;;;;;6.10;57.90;;;4.37;61.77;99490.34;12252183;19;19931;-85
2023/12/23 03:23:56;;;;;;;;;;;6.10;57.90;;;4.54;61.65;99530.91;12250938;19;19910;-85
2023/12/23 03:27:58;;;;;;;;;;;6.10;57.90;;;4.46;61.60;99527.84;12252217;19;19994;-85
2023/12/23 03:31:59;;;;;;;;;;;6.00;57.70;;;4.53;61.70;99559.41;12247883;19;19915;-85
2023/12/23 03:36:01;;;;;;;;;;;6.10;57.70;;;4.52;61.73;99555.16;12248614;19;19919;-85
2023/12/23 03:40:04;;;;;;;;;;;6.10;57.70;;;4.49;61.66;99557.88;12250606;19;20258;-85
2023/12/23 03:44:06;;;;;;;;;;;6.10;57.70;;;4.51;61.65;99567.25;12250375;19;19907;-85
2023/12/23 03:48:07;;;;;;;;;;;6.00;57.60;;;4.48;61.79;99569.13;12250433;19;19981;-85
2023/12/23 03:52:09;;;;;;;;;;;6.00;57.70;;;4.49;61.87;99570.81;12249052;19;19927;-85
2023/12/23 03:56:11;;;;;;;;;;;6.00;57.60;;;4.34;61.58;99564.63;12247059;19;20019;-85
2023/12/23 04:00:14;;;;;;;;;;;6.00;57.60;;;4.37;61.73;99565.31;12246971;19;19932;-85
2023/12/23 04:04:15;;;;;;;;;;;6.00;57.60;;;4.36;61.79;99573.16;12249731;19;19919;-85
2023/12/23 04:08:17;;;;;;;;;;;6.00;57.60;;;4.45;61.80;99588.19;12246718;19;19919;-85
2023/12/23 04:12:18;;;;;;;;;;;6.00;57.60;;;4.36;61.60;99567.97;12243307;19;19918;-85
2023/12/23 04:16:20;;;;;;;;;;;6.00;57.50;;;4.48;61.79;99593.22;12247104;19;19939;-85
2023/12/23 04:20:21;;;;;;;;;;;6.00;57.50;;;4.43;61.78;99588.28;12245981;19;19922;-85
2023/12/23 04:24:26;;;;;;;;;;;6.20;57.60;;;4.49;61.65;99594.06;12245550;19;19906;-85
2023/12/23 04:28:27;;;;;;;;;;;6.00;57.50;;;4.49;61.68;99594.91;12247853;19;19915;-85
2023/12/23 04:32:29;;;;;;;;;;;6.00;57.50;;;4.50;61.84;99598.31;12244700;19;20534;-85
2023/12/23 04:36:31;;;;;;;;;;;6.00;57.50;;;4.40;61.84;99585.84;12246875;19;20322;-85
2023/12/23 04:40:33;;;;;;;;;;;6.00;57.50;;;4.49;61.84;99599.25;12244071;19;20346;-85
2023/12/23 04:44:34;;;;;;;;;;;6.00;57.60;;;4.54;61.72;99600.69;12246212;19;19922;-85
2023/12/23 04:48:36;;;;;;;;;;;6.10;57.60;;;4.53;61.65;99604.16;12248165;19;19926;-85
2023/12/23 04:52:38;;;;;;;;;;;6.10;57.50;;;4.48;61.95;99592.38;12243729;19;19915;-85
2023/12/23 04:56:40;;;;;;;;;;;6.10;57.60;;;4.58;61.61;99593.63;12246282;19;19926;-85
2023/12/23 05:00:41;;;;;;;;;;;6.10;57.50;;;4.53;61.65;99564.56;12243837;19;19915;-85
2023/12/23 05:04:46;;;;;;;;;;;6.30;57.50;;;4.66;61.72;99581.16;12245918;19;19914;-85
2023/12/23 05:08:47;;;;;;;;;;;6.20;57.50;;;4.65;61.71;99575.16;12246501;19;20050;-84
2023/12/23 05:12:49;;;;;;;;;;;6.20;57.50;;;4.70;61.69;99574.94;12244987;19;19915;-84
2023/12/23 05:16:51;;;;;;;;;;;6.60;57.70;;;4.69;61.68;99562.91;12244754;19;19918;-85
2023/12/23 05:20:52;;;;;;;;;;;6.30;57.40;;;4.64;61.57;99560.56;12243200;19;20418;-85
2023/12/23 05:24:54;;;;;;;;;;;6.40;57.50;;;4.53;61.69;99525.78;12244622;19;19915;-84
2023/12/23 05:28:56;;;;;;;;;;;6.40;57.50;;;4.77;61.70;99572.84;12243909;19;19922;-85
2023/12/23 05:32:57;;;;;;;;;;;6.50;57.50;;;4.74;61.86;99557.50;12244011;19;19918;-85
2023/12/23 05:37:02;;;;;;;;;;;6.40;57.50;;;4.65;61.74;99533.78;12251595;19;19927;-85
2023/12/23 05:41:03;;;;;;;;;;;6.40;57.50;;;4.85;61.80;99557.78;12255493;19;19910;-85
2023/12/23 05:45:05;;;;;;;;;;;6.40;57.50;;;4.92;61.68;99573.84;12257328;19;20273;-85
2023/12/23 05:49:07;;;;;;;;;;;6.40;57.40;;;4.88;61.80;99563.63;12257325;19;19929;-85
2023/12/23 05:53:09;;;;;;;;;;;6.50;57.40;;;4.86;61.85;99555.16;12254761;19;19915;-85
2023/12/23 05:57:10;;;;;;;;;;;6.50;57.40;;;4.92;61.67;99558.34;12256858;19;20004;-84
2023/12/23 06:01:12;;;;;;;;;;;6.50;57.50;;;4.68;61.85;99503.50;12253945;19;20239;-85
2023/12/23 06:05:13;;;;;;;;;;;6.70;57.60;;;4.93;61.79;99541.88;12256182;19;20299;-85
2023/12/23 06:09:15;;;;;;;;;;;6.60;57.60;;;4.92;61.78;99519.53;12257240;19;19911;-85
2023/12/23 06:13:17;;;;;;;;;;;6.60;57.60;;;5.03;61.76;99530.16;12255276;19;19923;-85
2023/12/23 06:17:18;;;;;;;;;;;6.70;57.60;;;5.01;61.79;99517.28;12252626;19;20003;-85
2023/12/23 06:21:20;;;;;;;;;;;6.60;57.50;;;5.06;61.84;99517.91;12250376;19;19919;-85
2023/12/23 06:25:22;;;;;;;;;;;6.90;57.70;;;5.11;61.69;99525.44;12253815;19;19929;-86
2023/12/23 06:29:23;;;;;;;;;;;6.70;57.60;;;5.17;61.67;99527.69;12253596;19;20309;-85
2023/12/23 06:33:25;;;;;;;;;;;6.70;57.60;;;5.14;61.79;99503.72;12253684;19;20320;-85
2023/12/23 06:37:26;;;;;;;;;;;6.70;57.70;;;5.17;61.93;99504.41;12255709;19;19956;-85
2023/12/23 06:41:28;;;;;;;;;;;6.80;57.70;;;5.28;61.68;99507.25;12250164;19;20255;-86
2023/12/23 06:45:30;;;;;;;;;;;6.80;57.70;;;5.27;61.87;99510.75;12253905;19;19922;-84
2023/12/23 06:49:32;;;;;;;;;;;6.90;57.80;;;5.31;61.74;99504.50;12251982;19;19925;-84
2023/12/23 06:53:33;;;;;;;;;;;6.90;57.80;;;5.24;61.83;99490.22;12250556;19;19925;-84
2023/12/23 06:57:35;;;;;;;;;;;6.90;57.70;;;5.37;61.91;99510.25;12254545;19;19922;-84
2023/12/23 07:01:38;;;;;;;;;;;7.00;57.80;;;5.32;61.94;99497.59;12245265;19;19923;-85
2023/12/23 07:05:40;;;;;;;;;;;6.90;57.80;;;5.39;61.85;99508.44;12249109;19;19926;-86
2023/12/23 07:09:41;;;;;;;;;;;6.90;57.80;;;5.36;61.68;99501.66;12250589;19;19914;-87
2023/12/23 07:13:43;;;;;;;;;;;6.90;57.80;;;5.37;61.83;99492.16;12248333;19;20343;-88
2023/12/23 07:17:44;;;;;;;;;;;7.00;57.80;;;5.41;61.92;99496.25;12250330;19;19910;-86
2023/12/23 07:21:48;;;;;;;;;;;7.00;57.80;;;5.28;61.83;99480.53;12249815;19;19970;-86
2023/12/23 07:25:50;;;;;;;;;;;7.00;57.80;;;5.37;61.68;99494.72;12251842;19;19911;-87
2023/12/23 07:29:51;;;;;;;;;;;7.20;57.90;;;5.47;61.91;99517.47;12250147;19;19926;-86
2023/12/23 07:33:53;;;;;;;;;;;7.30;57.90;;;5.49;61.75;99501.84;12249745;19;19982;-86
2023/12/23 07:37:54;;;;;;;;;;;7.00;57.80;;;5.39;61.88;99477.38;12251264;19;20414;-88
2023/12/23 07:41:57;;;;;;;;;;;7.10;57.90;;;5.47;61.71;99490.75;12250022;19;19915;-87
2023/12/23 07:45:59;;;;;;;;;;;7.10;57.90;;;5.46;61.90;99491.66;12251788;19;19943;-87
2023/12/23 07:50:00;;;;;;;;;;;7.10;57.90;;;5.27;61.68;99461.59;12249783;19;20015;-87
2023/12/23 07:54:03;;;;;;;;;;;7.10;57.90;;;5.52;61.71;99489.56;12245694;19;19922;-88
2023/12/23 07:58:04;;;;;;;;;;;7.10;57.90;;;5.56;61.86;99482.47;12252346;19;19928;-89
2023/12/23 08:02:06;;;;;;;;;;;7.40;58.00;;;5.45;61.89;99467.50;12248240;19;19975;-86
2023/12/23 08:06:08;;;;;;;;;;;7.30;58.00;;;5.57;61.72;99484.16;12252978;19;20343;-86
2023/12/23 08:10:09;;;;;;;;;;;7.10;57.90;;;5.62;61.77;99484.72;12251880;19;19974;-87
2023/12/23 08:14:11;;;;;;;;;;;7.20;58.00;;;5.55;61.69;99476.44;12252406;19;19911;-86
2023/12/23 08:18:13;;;;;;;;;;;7.20;57.90;;;5.54;61.69;99469.63;12254222;19;20400;-86
2023/12/23 08:22:14;;;;;;;;;;;7.50;58.00;;;5.65;61.68;99488.91;12250482;19;19925;-87
2023/12/23 08:26:16;;;;;;;;;;;7.50;58.00;;;5.33;61.80;99427.59;12244110;19;19933;-86
2023/12/23 08:30:17;;;;;;;;;;;7.20;57.90;;;5.68;61.66;99483.56;12241766;19;19919;-86
2023/12/23 08:34:19;;;;;;;;;;;7.20;57.90;;;5.69;61.81;99485.22;12247453;19;20329;-86
2023/12/23 08:38:20;;;;;;;;;;;7.20;57.90;;;5.57;61.83;99478.97;12248066;19;19915;-84
2023/12/23 08:42:22;;;;;;;;;;;7.20;57.90;;;5.57;61.61;99468.63;12246456;19;19937;-87
2023/12/23 08:46:23;;;;;;;;;;;7.20;57.90;;;5.50;61.74;99483.63;12247405;19;19915;-88
2023/12/23 08:50:25;;;;;;;;;;;7.20;57.90;;;5.65;61.83;99488.91;12245285;19;19922;-86
2023/12/23 08:54:26;;;;;;;;;;;7.40;58.10;;;5.66;61.58;99496.56;12243020;19;19925;-86
2023/12/23 08:58:30;;;;;;;;;;;7.20;58.00;;;5.64;61.72;99503.59;12244115;19;19979;-86
2023/12/23 09:02:31;;;;;;;;;;;7.20;58.00;;;5.46;61.66;99476.13;12243902;19;20322;-86
2023/12/23 09:06:32;;;;;;;;;;;7.30;58.00;;;5.69;61.78;99522.31;12245846;19;19919;-85
2023/12/23 09:10:34;;;;;;;;;;;7.20;58.00;;;5.60;61.90;99486.56;12243585;19;19918;-85
2023/12/23 09:14:35;;;;;;;;;;;7.20;58.40;;;5.67;61.70;99519.00;12243334;19;19919;-85
2023/12/23 09:18:36;;;;;;;;;;;7.20;58.10;;;5.74;61.66;99515.13;12243249;19;19926;-83
2023/12/23 09:22:38;;;;;;;;;;;7.20;58.10;;;5.68;61.64;99496.50;12241917;19;19915;-86
2023/12/23 09:26:41;;;;;;;;;;;7.30;58.10;;;5.72;61.72;99506.59;12245880;19;19918;-86
2023/12/23 09:30:42;;;;;;;;;;;7.30;58.20;;;5.79;61.84;99524.41;12244139;19;19931;-86
2023/12/23 09:34:44;;;;;;;;;;;7.20;58.10;;;5.75;61.67;99510.78;12243423;19;19915;-86
2023/12/23 09:38:45;;;;;;;;;;;7.30;58.20;;;5.79;61.72;99520.06;12245826;19;19926;-84
2023/12/23 09:42:47;;;;;;;;;;;7.30;58.20;;;5.68;61.71;99493.91;12242031;19;19927;-85
2023/12/23 09:46:49;;;;;;;;;;;7.30;58.20;;;5.67;61.82;99498.28;12242334;19;19929;-85
2023/12/23 09:50:50;;;;;;;;;;;7.30;58.30;;;5.58;61.65;99480.63;12241239;19;19911;-85
2023/12/23 09:54:53;;;;;;;;;;;7.30;58.30;;;5.75;61.74;99514.22;12241886;19;19923;-86
2023/12/23 09:58:54;;;;;;;;;;;7.30;58.30;;;5.59;61.73;99491.81;12242094;19;19910;-86
2023/12/23 10:02:56;;;;;;;;;;;7.40;58.30;;;5.73;61.50;99515.22;12241004;19;19915;-86
2023/12/23 10:06:57;;;;;;;;;;;7.30;58.20;;;5.71;61.70;99512.69;12241476;19;19919;-85
2023/12/23 10:10:59;;;;;;;;;;;7.20;58.10;;;5.71;61.72;99519.66;12242503;19;19989;-86
2023/12/23 10:15:00;;;;;;;;;;;7.20;58.00;;;5.71;61.53;99524.81;12240744;19;19910;-86
2023/12/23 10:19:02;;;;;;;;;;;7.20;58.10;;;5.69;61.54;99522.31;12242039;19;19972;-86
2023/12/23 10:23:03;;;;;;;;;;;7.10;58.00;;;5.63;61.54;99517.47;12247017;19;20275;-86
2023/12/23 10:27:05;;;;;;;;;;;7.20;58.10;;;5.40;61.65;99473.84;12256257;19;19907;-87
2023/12/23 10:31:10;;;;;;;;;;;7.20;58.10;;;5.62;61.62;99528.75;12252724;19;19935;-86
2023/12/23 10:35:18;;;;;;;;;;;7.10;58.10;;;5.60;61.61;99522.81;12250208;19;20345;-87
2023/12/23 10:39:27;;;;;;;;;;;7.10;58.10;;;5.55;61.70;99522.22;12254117;19;19929;-87
2023/12/23 10:43:29;;;;;;;;;;;7.00;58.10;;;5.53;61.52;99521.47;12253844;19;19907;-86
2023/12/23 10:47:33;;;;;;;;;;;7.10;58.10;;;5.46;61.61;99514.97;12254666;19;19919;-87
2023/12/23 10:51:35;;;;;;;;;;;7.00;58.10;;;5.18;61.79;99469.00;12248417;19;19915;-87
2023/12/23 10:55:38;;;;;;;;;;;6.90;58.10;;;5.25;61.67;99489.28;12248745;19;19929;-86
2023/12/23 10:59:39;;;;;;;;;;;6.90;58.20;;;5.41;61.76;99504.03;12249556;19;19982;-86
2023/12/23 11:03:43;;;;;;;;;;;6.90;58.20;;;5.39;61.70;99500.66;12251080;19;20328;-86
2023/12/23 11:07:46;;;;;;;;;;;6.90;58.20;;;5.46;61.74;99517.56;12250569;19;19934;-86
2023/12/23 11:11:48;;;;;;;;;;;6.90;58.20;;;5.45;61.56;99511.50;12247770;19;19923;-87
2023/12/23 11:15:50;;;;;;;;;;;6.90;58.20;;;5.33;61.68;99501.84;12246883;19;19910;-87
2023/12/23 11:19:55;;;;;;;;;;;6.90;58.20;;;5.33;61.55;99504.44;12248788;19;19944;-86
2023/12/23 11:23:58;;;;;;;;;;;6.80;58.10;;;5.36;61.47;99506.84;12249639;19;19918;-86
2023/12/23 11:28:10;;;;;;;;;;;6.90;58.20;;;5.44;61.73;99534.91;12250694;19;19907;-87
2023/12/23 11:32:14;;;;;;;;;;;7.10;58.20;;;5.41;61.52;99528.16;12249262;19;19957;-86
2023/12/23 11:36:16;;;;;;;;;;;6.80;58.10;;;5.36;61.65;99518.97;12247468;19;19982;-86
2023/12/23 11:40:19;;;;;;;;;;;6.80;58.00;;;5.26;61.67;99511.66;12249827;19;19936;-86
2023/12/23 11:44:23;;;;;;;;;;;6.80;58.10;;;5.32;61.47;99520.88;12250017;19;19929;-90
2023/12/23 11:48:24;;;;;;;;;;;6.80;58.10;;;5.36;61.66;99532.72;12250595;19;20225;-86
2023/12/23 11:52:27;;;;;;;;;;;6.80;58.30;;;5.30;61.41;99523.53;12245862;19;20618;-85
2023/12/23 11:56:28;;;;;;;;;;;7.00;58.20;;;5.19;61.50;99512.09;12245733;19;20359;-85
2023/12/23 12:00:31;;;;;;;;;;;6.80;58.10;;;5.22;61.40;99517.09;12250423;19;19922;-85
2023/12/23 12:04:32;;;;;;;;;;;6.80;58.10;;;5.04;61.52;99506.78;12249531;19;20005;-84
2023/12/23 12:08:35;;;;;;;;;;;6.90;58.10;;;5.08;61.47;99515.25;12251414;19;19936;-85
2023/12/23 12:12:37;;;;;;;;;;;6.80;58.10;;;5.22;61.70;99541.22;12243094;19;19931;-85
2023/12/23 12:16:40;;;;;;;;;;;6.60;58.10;;;5.19;61.54;99549.16;12247662;19;19907;-86
2023/12/23 12:20:42;;;;;;;;;;;6.70;58.20;;;5.03;61.63;99528.41;12247291;19;19915;-85
2023/12/23 12:24:43;;;;;;;;;;;6.60;58.10;;;4.87;61.74;99497.31;12247689;19;19946;-85
2023/12/23 12:28:45;;;;;;;;;;;6.60;58.20;;;4.94;61.74;99508.19;12246879;19;20257;-84
2023/12/23 12:32:47;;;;;;;;;;;6.60;58.20;;;4.84;61.71;99492.31;12242973;19;19986;-84
2023/12/23 12:36:51;;;;;;;;;;;6.60;58.20;;;5.01;61.62;99524.22;12248373;19;20338;-86
2023/12/23 12:40:52;;;;;;;;;;;6.60;58.30;;;5.04;61.88;99529.22;12245813;19;20333;-85
2023/12/23 12:45:02;;;;;;;;;;;6.50;58.20;;;5.05;61.79;99525.72;12245276;19;19923;-86
2023/12/23 12:49:05;;;;;;;;;;;6.60;58.30;;;5.06;61.76;99527.41;12247332;19;19926;-85
2023/12/23 12:53:06;;;;;;;;;;;6.50;58.20;;;4.91;61.62;99508.34;12236757;19;20352;-86
2023/12/23 12:57:08;;;;;;;;;;;6.50;58.20;;;4.81;61.60;99496.81;12247725;19;20330;-85
2023/12/23 13:01:10;;;;;;;;;;;6.50;58.20;;;4.83;61.63;99505.31;12243044;19;19915;-85
2023/12/23 13:05:11;;;;;;;;;;;6.50;58.20;;;4.66;61.67;99488.06;12246001;19;19924;-85
2023/12/23 13:09:12;;;;;;;;;;;6.40;58.20;;;4.90;61.79;99523.94;12246887;19;20297;-85
2023/12/23 13:13:15;;;;;;;;;;;6.50;58.30;;;4.86;61.84;99529.28;12244330;19;19919;-84
2023/12/23 13:17:16;;;;;;;;;;;6.50;58.30;;;4.99;61.81;99559.69;12247394;19;19935;-87
2023/12/23 13:21:17;;;;;;;;;;;6.50;58.30;;;4.86;61.86;99544.78;12245616;19;19911;-87
2023/12/23 13:25:19;;;;;;;;;;;6.50;58.30;;;4.93;61.76;99547.91;12245196;19;19915;-86
2023/12/23 13:29:21;;;;;;;;;;;6.40;58.70;;;4.88;61.73;99540.34;12245517;19;20322;-86
2023/12/23 13:33:22;;;;;;;;;;;6.50;58.30;;;4.91;61.92;99554.06;12244492;19;19930;-86
2023/12/23 13:37:23;;;;;;;;;;;6.50;58.40;;;5.05;61.89;99580.06;12248261;19;20303;-86
2023/12/23 13:41:28;;;;;;;;;;;6.70;58.50;;;4.96;61.91;99562.44;12243062;19;19919;-87
2023/12/23 13:45:29;;;;;;;;;;;6.50;58.40;;;5.04;61.77;99584.41;12247517;19;19914;-86
2023/12/23 13:49:30;;;;;;;;;;;6.60;58.40;;;5.05;61.72;99593.84;12244484;19;19911;-87
2023/12/23 13:53:32;;;;;;;;;;;6.60;58.60;;;5.05;61.92;99583.50;12244262;19;20012;-86
2023/12/23 13:57:34;;;;;;;;;;;6.60;58.50;;;4.90;61.91;99579.09;12249540;19;19915;-86
2023/12/23 14:01:35;;;;;;;;;;;6.80;58.60;;;5.02;61.91;99593.16;12254378;19;19923;-86
2023/12/23 14:05:37;;;;;;;;;;;6.60;58.50;;;5.18;61.77;99624.25;12258948;19;19927;-86
2023/12/23 14:09:38;;;;;;;;;;;6.70;58.50;;;5.08;61.72;99608.38;12256187;19;19925;-85
2023/12/23 14:13:39;;;;;;;;;;;6.70;58.60;;;5.16;61.92;99623.50;12254424;19;19911;-85
2023/12/23 14:17:41;;;;;;;;;;;6.80;58.60;;;5.08;61.81;99624.75;12254918;19;20266;-86
2023/12/23 14:21:43;;;;;;;;;;;6.70;58.60;;;5.01;61.74;99612.19;12253354;19;19979;-85
2023/12/23 14:25:45;;;;;;;;;;;6.70;58.60;;;5.18;61.83;99650.97;12253689;19;20264;-86
2023/12/23 14:29:48;;;;;;;;;;;6.70;58.60;;;5.19;61.97;99651.84;12253315;19;19933;-85
2023/12/23 14:33:51;;;;;;;;;;;6.70;58.60;;;5.18;61.81;99656.16;12253291;19;19925;-85
2023/12/23 14:37:53;;;;;;;;;;;6.70;58.60;;;5.26;61.98;99676.47;12255210;19;19914;-86
2023/12/23 14:41:55;;;;;;;;;;;7.00;58.80;;;5.27;61.85;99671.22;12250976;19;19933;-85
2023/12/23 14:45:57;;;;;;;;;;;6.80;58.70;;;5.18;61.93;99661.31;12254035;19;19911;-85
2023/12/23 14:49:58;;;;;;;;;;;6.90;58.70;;;5.24;61.97;99676.56;12251422;19;20363;-86
2023/12/23 14:53:59;;;;;;;;;;;6.70;58.60;;;5.22;61.85;99677.56;12253259;19;19923;-86
2023/12/23 14:58:01;;;;;;;;;;;6.90;58.70;;;5.23;61.85;99674.88;12253199;19;19927;-86
2023/12/23 15:02:03;;;;;;;;;;;6.70;58.60;;;5.20;62.11;99675.03;12251246;19;20022;-85
2023/12/23 15:06:04;;;;;;;;;;;6.80;58.70;;;4.99;61.98;99655.41;12253236;19;19911;-86
2023/12/23 15:10:07;;;;;;;;;;;6.80;58.70;;;5.24;61.94;99697.28;12249898;19;19929;-86
2023/12/23 15:14:09;;;;;;;;;;;6.80;58.70;;;5.11;61.90;99680.69;12248102;19;20406;-85
2023/12/23 15:18:11;;;;;;;;;;;6.80;58.70;;;5.23;62.04;99705.94;12250759;19;19926;-86
2023/12/23 15:22:12;;;;;;;;;;;6.80;58.70;;;5.22;61.92;99696.50;12247528;19;19926;-86
2023/12/23 15:26:14;;;;;;;;;;;6.80;58.80;;;5.10;61.90;99684.16;12253072;19;19911;-85
2023/12/23 15:30:16;;;;;;;;;;;7.00;58.90;;;4.94;61.93;99662.53;12250153;19;20326;-85
2023/12/23 15:34:18;;;;;;;;;;;6.80;58.80;;;5.33;62.02;99747.75;12249464;19;19915;-86
2023/12/23 15:38:20;;;;;;;;;;;6.80;58.80;;;5.32;61.91;99739.13;12250769;19;19915;-86
2023/12/23 15:42:21;;;;;;;;;;;6.80;58.90;;;5.07;61.92;99703.25;12248151;19;19930;-86
2023/12/23 15:46:23;;;;;;;;;;;6.80;58.80;;;5.28;62.10;99750.53;12252744;19;19918;-85
2023/12/23 15:50:24;;;;;;;;;;;7.00;58.90;;;5.31;61.97;99760.75;12250301;19;19935;-86
2023/12/23 15:54:26;;;;;;;;;;;6.90;58.80;;;5.33;61.95;99769.28;12250750;19;19939;-85
2023/12/23 15:58:27;;;;;;;;;;;6.90;58.80;;;5.32;61.90;99770.19;12249421;19;20275;-86
2023/12/23 16:02:29;;;;;;;;;;;6.90;58.80;;;5.36;62.00;99772.63;12246920;19;19907;-85
2023/12/23 16:06:32;;;;;;;;;;;7.00;58.80;;;5.34;62.04;99777.88;12250307;19;20263;-86
2023/12/23 16:10:34;;;;;;;;;;;7.00;58.80;;;5.31;62.05;99796.16;12248807;19;19925;-86
2023/12/23 16:14:39;;;;;;;;;;;6.90;58.80;;;5.33;62.14;99789.16;12247437;19;19918;-86
2023/12/23 16:18:41;;;;;;;;;;;6.90;58.70;;;5.31;62.21;99806.50;12249847;19;19926;-86
2023/12/23 16:22:47;;;;;;;;;;;7.00;58.70;;;5.10;62.01;99775.59;12242819;19;21007;-86
2023/12/23 16:26:49;;;;;;;;;;;6.90;58.60;;;5.29;62.22;99813.50;12249642;19;19932;-85
2023/12/23 16:30:50;;;;;;;;;;;6.90;58.60;;;5.17;62.26;99799.41;12244631;19;19918;-86
2023/12/23 16:34:52;;;;;;;;;;;6.90;58.60;;;5.30;62.20;99818.63;12240080;19;20337;-86
2023/12/23 16:38:54;;;;;;;;;;;7.10;58.60;;;5.34;62.15;99824.47;12244855;19;19948;-86
2023/12/23 16:42:55;;;;;;;;;;;6.90;58.50;;;5.37;62.19;99831.25;12239338;19;19927;-86
2023/12/23 16:46:56;;;;;;;;;;;6.90;58.50;;;5.38;62.16;99838.13;12243052;19;19922;-86
2023/12/23 16:50:58;;;;;;;;;;;6.90;58.50;;;5.36;62.10;99832.19;12239681;19;19913;-86
2023/12/23 16:55:00;;;;;;;;;;;6.90;58.50;;;5.35;61.99;99836.53;12239656;19;20266;-86
2023/12/23 16:59:01;;;;;;;;;;;6.90;58.50;;;5.26;62.04;99830.00;12242693;19;19930;-86
2023/12/23 17:03:03;;;;;;;;;;;6.90;58.50;;;5.31;62.13;99841.00;12244674;19;19922;-86
2023/12/23 17:07:04;;;;;;;;;;;6.90;58.50;;;5.33;61.99;99851.28;12247493;19;19911;-86
2023/12/23 17:11:06;;;;;;;;;;;6.90;58.50;;;5.35;62.03;99856.38;12242677;19;19918;-86
2023/12/23 17:15:09;;;;;;;;;;;6.80;58.50;;;5.25;62.06;99849.06;12245028;19;19930;-87
2023/12/23 17:19:11;;;;;;;;;;;6.80;58.50;;;5.33;62.18;99865.06;12245237;19;19919;-86
2023/12/23 17:23:13;;;;;;;;;;;6.90;58.60;;;4.73;62.00;99760.97;12245427;19;19921;-87
2023/12/23 17:27:21;;;;;;;;;;;6.80;58.50;;;5.36;62.11;99871.00;12241364;19;19919;-86
2023/12/23 17:31:22;;;;;;;;;;;6.80;58.50;;;5.36;61.95;99858.91;12243110;19;19915;-86
2023/12/23 17:35:25;;;;;;;;;;;6.80;58.50;;;5.42;61.99;99850.81;12250915;19;19919;-86
2023/12/23 17:39:27;;;;;;;;;;;6.90;58.60;;;5.20;62.01;99813.94;12254320;19;19929;-87
2023/12/23 17:43:28;;;;;;;;;;;6.90;58.60;;;5.43;62.14;99857.69;12255311;19;19936;-86
2023/12/23 17:47:30;;;;;;;;;;;6.90;58.60;;;5.44;61.94;99843.84;12249692;19;20291;-86
2023/12/23 17:51:31;;;;;;;;;;;6.90;58.60;;;5.43;61.99;99846.50;12251948;19;20245;-86
2023/12/23 17:55:32;;;;;;;;;;;6.90;58.60;;;5.46;61.91;99854.13;12254229;19;19923;-86
2023/12/23 17:59:34;;;;;;;;;;;6.90;58.60;;;5.43;62.21;99841.34;12256599;19;19930;-86
2023/12/23 18:03:35;;;;;;;;;;;6.90;58.60;;;5.47;62.03;99848.03;12255317;19;19943;-86
2023/12/23 18:07:37;;;;;;;;;;;6.90;58.60;;;5.38;61.98;99825.19;12258728;19;19930;-86
2023/12/23 18:11:38;;;;;;;;;;;6.90;58.60;;;5.40;61.94;99823.34;12251974;19;19907;-86
2023/12/23 18:15:40;;;;;;;;;;;7.10;58.70;;;5.45;62.15;99835.13;12253126;19;19926;-86
2023/12/23 18:19:41;;;;;;;;;;;7.00;58.70;;;5.49;62.10;99847.03;12256497;19;19915;-86
2023/12/23 18:23:43;;;;;;;;;;;7.00;58.60;;;5.47;62.21;99837.66;12256340;19;19922;-86
2023/12/23 18:27:44;;;;;;;;;;;7.10;58.70;;;5.48;61.98;99844.50;12255336;19;19922;-86
2023/12/23 18:31:46;;;;;;;;;;;7.00;58.60;;;5.53;62.00;99864.09;12250566;19;20291;-86
2023/12/23 18:35:47;;;;;;;;;;;7.00;58.60;;;5.29;62.10;99829.88;12251336;19;19927;-86
2023/12/23 18:39:49;;;;;;;;;;;7.10;58.60;;;5.42;62.01;99850.81;12254638;19;20325;-85
2023/12/23 18:43:50;;;;;;;;;;;7.00;58.60;;;5.48;61.99;99865.22;12251328;19;20035;-86